Time;durP1;ratioP1;P1;durP2;ratioP2;P2;SDS_P1;SDS_P2;PMS_P1;PMS_P2;Temp;Humidity;BMP_temperature;BMP_pressure;BME280_temperature;BME280_humidity;BME280_pressure;Samples;Min_cycle;Max_cycle;Signal;HPM_P1;HPM_P2
2023/10/23 00:02:03;;;;;;;4.07;3.25;;;;;;;7.14;100.00;101309.38;5094235;28;20728;-81
2023/10/23 00:04:29;;;;;;;3.50;3.28;;;;;;;7.13;100.00;101310.50;5093739;28;20055;-81
2023/10/23 00:06:56;;;;;;;3.70;3.40;;;;;;;7.11;100.00;101304.88;5095756;28;20046;-81
2023/10/23 00:09:23;;;;;;;3.47;3.17;;;;;;;7.07;100.00;101309.47;5093385;28;20409;-81
2023/10/23 00:11:50;;;;;;;3.97;3.00;;;;;;;7.00;100.00;101311.06;5094407;28;20041;-80
2023/10/23 00:14:16;;;;;;;5.50;3.20;;;;;;;6.93;100.00;101319.09;5093537;28;20106;-80
2023/10/23 00:16:43;;;;;;;12.45;3.28;;;;;;;6.93;100.00;101307.75;5093989;28;20055;-80
2023/10/23 00:19:09;;;;;;;4.03;3.08;;;;;;;6.89;100.00;101307.81;5094054;28;20044;-80
2023/10/23 00:21:36;;;;;;;3.47;3.17;;;;;;;6.85;100.00;101304.47;5093931;28;20420;-80
2023/10/23 00:24:03;;;;;;;3.03;2.83;;;;;;;6.84;100.00;101310.16;5094130;28;20508;-81
2023/10/23 00:26:29;;;;;;;5.75;3.05;;;;;;;6.80;100.00;101310.19;5094753;28;20075;-80
2023/10/23 00:28:56;;;;;;;3.95;2.92;;;;;;;6.75;100.00;101310.69;5093647;28;20076;-80
2023/10/23 00:31:22;;;;;;;3.13;2.83;;;;;;;6.75;100.00;101313.31;5094842;28;20045;-80
2023/10/23 00:33:49;;;;;;;3.00;2.80;;;;;;;6.76;100.00;101308.78;5095642;28;20469;-80
2023/10/23 00:36:18;;;;;;;4.55;2.55;;;;;;;6.77;100.00;101313.66;5093662;28;20045;-80
2023/10/23 00:38:44;;;;;;;3.35;2.83;;;;;;;6.79;100.00;101316.66;5060395;28;20486;-80
2023/10/23 00:41:11;;;;;;;6.82;2.90;;;;;;;6.80;100.00;101315.50;5094940;28;20076;-80
2023/10/23 00:43:38;;;;;;;2.80;2.60;;;;;;;6.82;100.00;101323.03;5092998;28;20049;-82
2023/10/23 00:46:11;;;;;;;3.10;2.88;;;;;;;6.82;100.00;101320.38;5093545;28;20052;-82
2023/10/23 00:48:38;;;;;;;3.92;2.72;;;;;;;6.82;100.00;101323.78;5095017;28;20036;-81
2023/10/23 00:51:06;;;;;;;3.45;3.13;;;;;;;6.81;100.00;101326.81;5094962;28;20179;-81
2023/10/23 00:53:36;;;;;;;2.85;2.65;;;;;;;6.78;100.00;101323.09;5093758;28;20071;-81
2023/10/23 00:56:04;;;;;;;2.80;2.60;;;;;;;6.77;100.00;101326.16;5094312;28;20062;-81
2023/10/23 00:58:33;;;;;;;3.60;2.65;;;;;;;6.74;100.00;101322.41;5094303;28;20063;-81
2023/10/23 01:01:01;;;;;;;6.15;2.95;;;;;;;6.72;100.00;101324.69;5093648;28;20477;-81
2023/10/23 01:03:28;;;;;;;3.67;2.88;;;;;;;6.69;100.00;101333.44;5092560;28;20049;-81
2023/10/23 01:05:55;;;;;;;3.25;2.60;;;;;;;6.62;100.00;101325.56;5094891;28;20041;-82
2023/10/23 01:08:21;;;;;;;5.00;2.58;;;;;;;6.58;100.00;101324.88;5092971;28;20091;-82
2023/10/23 01:10:48;;;;;;;2.80;2.60;;;;;;;6.57;100.00;101320.72;5094813;28;20493;-82
2023/10/23 01:13:15;;;;;;;2.75;2.55;;;;;;;6.56;100.00;101330.56;5094323;28;20138;-82
2023/10/23 01:15:42;;;;;;;5.70;2.70;;;;;;;6.56;100.00;101321.88;5094668;28;20045;-81
2023/10/23 01:18:08;;;;;;;2.90;2.70;;;;;;;6.58;100.00;101319.59;5094344;28;20047;-81
2023/10/23 01:20:35;;;;;;;3.53;2.65;;;;;;;6.57;100.00;101321.47;5094614;28;20048;-81
2023/10/23 01:23:03;;;;;;;4.53;2.83;;;;;;;6.56;100.00;101322.63;5094671;28;20529;-81
2023/10/23 01:25:29;;;;;;;3.13;2.80;;;;;;;6.55;100.00;101323.75;5092619;28;20095;-82
2023/10/23 01:27:56;;;;;;;3.33;2.92;;;;;;;6.55;100.00;101333.59;5093477;28;20051;-81
2023/10/23 01:30:23;;;;;;;6.10;2.95;;;;;;;6.54;100.00;101332.84;5092536;28;20052;-81
2023/10/23 01:32:50;;;;;;;7.30;3.08;;;;;;;6.54;100.00;101334.75;5092860;28;20058;-81
2023/10/23 01:35:18;;;;;;;3.90;2.75;;;;;;;6.54;100.00;101345.31;5076115;28;20095;-82
2023/10/23 01:37:47;;;;;;;4.20;3.00;;;;;;;6.57;100.00;101344.53;5094665;28;20072;-81
2023/10/23 01:40:13;;;;;;;4.68;3.35;;;;;;;6.59;100.00;101350.19;5092151;28;20068;-81
2023/10/23 01:42:41;;;;;;;3.83;2.72;;;;;;;6.62;100.00;101359.97;5094206;28;20040;-81
2023/10/23 01:45:09;;;;;;;3.05;2.85;;;;;;;6.62;100.00;101352.78;5092044;28;20099;-81
2023/10/23 01:47:35;;;;;;;3.28;2.97;;;;;;;6.65;100.00;101352.00;5092623;28;20048;-81
2023/10/23 01:50:02;;;;;;;4.40;3.20;;;;;;;6.67;100.00;101352.34;5092578;28;20055;-81
2023/10/23 01:52:29;;;;;;;4.93;3.53;;;;;;;6.69;100.00;101352.69;5092281;28;20044;-81
2023/10/23 01:54:55;;;;;;;3.33;3.05;;;;;;;6.71;100.00;101351.56;5093638;28;20092;-81
2023/10/23 01:57:22;;;;;;;3.78;3.38;;;;;;;6.69;100.00;101344.75;5092351;28;20528;-81
2023/10/23 01:59:49;;;;;;;4.13;3.72;;;;;;;6.71;100.00;101347.00;5092239;28;20127;-81
2023/10/23 02:02:15;;;;;;;3.80;3.50;;;;;;;6.72;100.00;101348.50;5092123;28;20136;-81
2023/10/23 02:04:42;;;;;;;3.55;3.25;;;;;;;6.76;100.00;101340.53;5092483;28;20052;-81
2023/10/23 02:07:09;;;;;;;4.80;3.10;;;;;;;6.77;100.00;101337.50;5092005;28;20048;-81
2023/10/23 02:09:35;;;;;;;6.38;3.67;;;;;;;6.80;100.00;101341.97;5091457;28;20509;-81
2023/10/23 02:12:04;;;;;;;3.58;3.38;;;;;;;6.83;100.00;101335.13;5092388;28;20052;-81
2023/10/23 02:14:31;;;;;;;3.95;3.20;;;;;;;6.87;100.00;101349.06;5092057;28;20040;-81
2023/10/23 02:16:58;;;;;;;4.80;3.40;;;;;;;6.89;100.00;101347.50;5091631;28;20502;-81
2023/10/23 02:19:24;;;;;;;5.95;3.47;;;;;;;6.89;100.00;101347.50;5091724;28;20044;-81
2023/10/23 02:21:51;;;;;;;5.60;3.72;;;;;;;6.92;100.00;101340.66;5093904;28;20052;-81
2023/10/23 02:24:21;;;;;;;3.55;3.25;;;;;;;6.95;100.00;101355.75;5091771;28;20044;-81
2023/10/23 02:26:48;;;;;;;4.28;3.50;;;;;;;6.96;100.00;101347.41;5093410;28;20512;-81
2023/10/23 02:29:15;;;;;;;3.83;3.50;;;;;;;6.97;100.00;101354.22;5091927;28;20045;-81
2023/10/23 02:31:42;;;;;;;6.97;3.78;;;;;;;7.00;100.00;101358.72;5093037;28;20049;-81
2023/10/23 02:34:08;;;;;;;4.88;3.53;;;;;;;7.02;100.00;101366.25;5093285;28;20123;-81
2023/10/23 02:36:35;;;;;;;4.43;3.63;;;;;;;7.04;100.00;101366.59;5093337;28;20141;-82
2023/10/23 02:39:02;;;;;;;3.72;3.38;;;;;;;7.07;100.00;101362.41;5091656;28;20117;-81
2023/10/23 02:41:29;;;;;;;4.07;3.75;;;;;;;7.09;100.00;101360.88;5092710;28;20048;-81
2023/10/23 02:43:56;;;;;;;3.67;3.38;;;;;;;7.13;100.00;101366.13;5091843;28;20610;-81
2023/10/23 02:46:23;;;;;;;5.45;3.75;;;;;;;7.14;100.00;101362.31;5091320;28;20048;-81
2023/10/23 02:48:50;;;;;;;4.03;3.72;;;;;;;7.17;100.00;101366.81;5092018;28;20205;-81
2023/10/23 02:51:17;;;;;;;7.00;4.10;;;;;;;7.18;100.00;101357.72;5091704;28;20052;-82
2023/10/23 02:53:44;;;;;;;3.85;3.50;;;;;;;7.20;100.00;101361.44;5091647;28;20120;-81
2023/10/23 02:56:13;;;;;;;6.97;3.78;;;;;;;7.19;100.00;101364.53;5090397;28;20132;-82
2023/10/23 02:58:40;;;;;;;8.10;3.83;;;;;;;7.18;100.00;101357.72;5091126;28;20048;-82
2023/10/23 03:01:16;;;;;;;3.78;3.42;;;;;;;7.17;100.00;101356.97;5091629;28;20520;-82
2023/10/23 03:03:43;;;;;;;4.03;3.45;;;;;;;7.19;100.00;101367.16;5092766;28;20053;-82
2023/10/23 03:06:10;;;;;;;5.53;4.05;;;;;;;7.19;100.00;101373.22;5090539;28;20049;-82
2023/10/23 03:08:37;;;;;;;4.97;3.40;;;;;;;7.20;100.00;101366.75;5089272;28;20485;-82
2023/10/23 03:11:05;;;;;;;4.13;3.67;;;;;;;7.23;100.00;101370.47;5091540;28;20091;-82
2023/10/23 03:13:32;;;;;;;4.40;4.00;;;;;;;7.25;100.00;101373.47;5090894;28;20041;-82
2023/10/23 03:15:59;;;;;;;4.35;3.95;;;;;;;7.27;100.00;101364.00;5092757;28;20124;-81
2023/10/23 03:18:26;;;;;;;3.75;3.45;;;;;;;7.30;100.00;101378.34;5092288;28;20037;-81
2023/10/23 03:20:52;;;;;;;4.05;3.75;;;;;;;7.31;100.00;101366.59;5091236;28;20053;-81
2023/10/23 03:23:19;;;;;;;4.45;4.05;;;;;;;7.31;100.00;101366.59;5090262;28;20083;-83
2023/10/23 03:25:46;;;;;;;4.97;3.42;;;;;;;7.32;100.00;101362.78;5091499;28;20158;-83
2023/10/23 03:28:13;;;;;;;4.07;3.78;;;;;;;7.32;100.00;101366.19;5090972;28;20049;-83
2023/10/23 03:30:39;;;;;;;4.18;3.88;;;;;;;7.31;100.00;101356.00;5089743;28;20075;-82
2023/10/23 03:33:06;;;;;;;4.05;3.75;;;;;;;7.29;100.00;101361.69;5092461;28;20047;-82
2023/10/23 03:35:34;;;;;;;6.78;3.58;;;;;;;7.24;100.00;101367.44;5090576;28;20049;-81
2023/10/23 03:38:01;;;;;;;4.47;3.78;;;;;;;7.19;100.00;101367.91;5091601;28;20044;-81
2023/10/23 03:40:27;;;;;;;4.13;3.83;;;;;;;7.13;100.00;101364.22;5091996;28;20048;-82
2023/10/23 03:42:54;;;;;;;5.93;4.07;;;;;;;7.12;100.00;101370.66;5092675;28;20044;-81
2023/10/23 03:45:20;;;;;;;3.90;3.50;;;;;;;7.08;100.00;101366.56;5073525;28;20052;-81
2023/10/23 03:47:47;;;;;;;6.18;3.67;;;;;;;7.06;100.00;101368.84;5090905;28;20499;-82
2023/10/23 03:50:14;;;;;;;4.40;3.97;;;;;;;6.97;100.00;101380.69;5091853;28;20120;-82
2023/10/23 03:52:40;;;;;;;3.88;3.20;;;;;;;6.96;100.00;101381.84;5090578;28;20135;-82
2023/10/23 03:55:07;;;;;;;6.03;3.85;;;;;;;6.94;100.00;101383.38;5090512;28;20399;-81
2023/10/23 03:57:34;;;;;;;3.70;3.40;;;;;;;6.91;100.00;101384.16;5073781;28;20048;-82
2023/10/23 04:00:00;;;;;;;3.58;3.22;;;;;;;6.87;100.00;101394.81;5074237;28;20053;-82
2023/10/23 04:02:27;;;;;;;4.07;3.78;;;;;;;6.87;100.00;101389.50;5073663;28;20132;-82
2023/10/23 04:04:53;;;;;;;4.38;3.42;;;;;;;6.89;100.00;101384.56;5089757;28;20080;-82
2023/10/23 04:07:20;;;;;;;7.18;3.65;;;;;;;6.91;100.00;101392.09;5091734;28;20048;-83
2023/10/23 04:09:47;;;;;;;4.30;3.90;;;;;;;6.92;100.00;101388.31;5091127;28;20089;-83
2023/10/23 04:12:13;;;;;;;4.88;3.83;;;;;;;6.94;100.00;101397.34;5090609;28;20490;-82
2023/10/23 04:14:40;;;;;;;4.10;3.65;;;;;;;6.94;100.00;101399.25;5073672;28;20045;-82
2023/10/23 04:17:07;;;;;;;6.15;3.92;;;;;;;6.93;100.00;101390.56;5073516;28;20044;-82
2023/10/23 04:19:34;;;;;;;4.30;3.95;;;;;;;6.98;100.00;101384.84;5072842;28;20147;-83
2023/10/23 04:22:00;;;;;;;4.38;3.78;;;;;;;7.00;100.00;101384.44;5092189;28;20163;-82
2023/10/23 04:24:27;;;;;;;5.50;4.32;;;;;;;7.02;100.00;101376.84;5091606;28;20489;-83
2023/10/23 04:26:53;;;;;;;4.43;4.10;;;;;;;7.05;100.00;101380.59;5091751;28;20040;-83
2023/10/23 04:29:20;;;;;;;6.57;4.13;;;;;;;7.07;100.00;101375.66;5091448;28;20040;-82
2023/10/23 04:31:47;;;;;;;5.72;4.40;;;;;;;7.10;100.00;101372.22;5091781;28;20076;-82
2023/10/23 04:34:14;;;;;;;4.80;4.30;;;;;;;7.11;100.00;101374.47;5091148;28;20041;-83
2023/10/23 04:36:41;;;;;;;5.85;4.00;;;;;;;7.13;100.00;101380.09;5090349;28;20048;-82
2023/10/23 04:39:07;;;;;;;4.53;4.13;;;;;;;7.16;100.00;101381.22;5091857;28;20433;-82
2023/10/23 04:41:34;;;;;;;4.78;4.38;;;;;;;7.19;100.00;101383.06;5093432;28;20102;-81
2023/10/23 04:44:00;;;;;;;5.18;4.30;;;;;;;7.21;100.00;101386.78;5095453;28;20480;-81
2023/10/23 04:46:27;;;;;;;5.18;4.68;;;;;;;7.24;100.00;101379.94;5093182;28;20054;-78
2023/10/23 04:48:54;;;;;;;4.95;4.45;;;;;;;7.27;100.00;101381.78;5093109;28;20535;-79
2023/10/23 04:51:20;;;;;;;9.88;5.22;;;;;;;7.29;100.00;101382.88;5093329;28;20049;-78
2023/10/23 04:53:47;;;;;;;6.05;5.40;;;;;;;7.31;100.00;101377.19;5095260;28;20102;-79
2023/10/23 04:56:13;;;;;;;5.47;4.97;;;;;;;7.32;100.00;101382.09;5093187;28;20500;-78
2023/10/23 04:58:40;;;;;;;12.73;5.70;;;;;;;7.35;100.00;101372.59;5094972;28;20110;-78
2023/10/23 05:01:15;;;;;;;13.10;5.65;;;;;;;7.39;100.00;101391.06;5094645;28;20545;-79
2023/10/23 05:03:41;;;;;;;10.05;5.72;;;;;;;7.42;100.00;101393.69;5092919;28;20053;-79
2023/10/23 05:06:08;;;;;;;14.30;6.35;;;;;;;7.43;100.00;101392.53;5093101;28;20131;-78
2023/10/23 05:08:35;;;;;;;16.50;7.53;;;;;;;7.47;100.00;101400.44;5094572;28;20072;-79
2023/10/23 05:11:06;;;;;;;12.40;7.35;;;;;;;7.51;100.00;101401.13;5095138;28;20484;-79
2023/10/23 05:13:33;;;;;;;27.65;8.15;;;;;;;7.54;100.00;101403.72;5093329;28;20120;-78
2023/10/23 05:16:06;;;;;;;17.75;8.18;;;;;;;7.56;100.00;101393.47;5094579;28;20044;-78
2023/10/23 05:18:34;;;;;;;32.85;7.70;;;;;;;7.60;100.00;101394.13;5092658;28;20056;-78
2023/10/23 05:21:10;;;;;;;12.40;7.50;;;;;;;7.63;100.00;101398.63;5095002;28;20053;-78
2023/10/23 05:23:38;;;;;;;15.02;8.10;;;;;;;7.65;100.00;101401.63;5093524;28;20075;-81
2023/10/23 05:26:06;;;;;;;18.63;7.78;;;;;;;7.69;100.00;101399.69;5095292;28;20048;-79
2023/10/23 05:28:33;;;;;;;20.42;8.43;;;;;;;7.73;100.00;101390.91;5093206;28;20429;-78
2023/10/23 05:30:59;;;;;;;27.27;8.43;;;;;;;7.78;100.00;101406.38;5093081;28;20044;-78
2023/10/23 05:33:26;;;;;;;33.85;8.85;;;;;;;7.81;100.00;101394.97;5093556;28;20045;-78
2023/10/23 05:36:06;;;;;;;25.48;8.30;;;;;;;7.85;100.00;101395.66;5092936;28;20049;-78
2023/10/23 05:38:33;;;;;;;31.90;9.20;;;;;;;7.88;100.00;101398.25;5094134;28;20045;-78
2023/10/23 05:40:59;;;;;;;35.42;9.80;;;;;;;7.89;100.00;101396.34;5094313;28;20124;-79
2023/10/23 05:43:26;;;;;;;24.90;9.98;;;;;;;7.91;100.00;101394.03;5093922;28;20600;-77
2023/10/23 05:45:57;;;;;;;32.03;9.40;;;;;;;7.93;100.00;101400.44;5092694;28;20493;-79
2023/10/23 05:48:24;;;;;;;50.90;10.65;;;;;;;7.95;100.00;101392.09;5093363;28;20056;-78
2023/10/23 05:50:58;;;;;;;35.17;10.27;;;;;;;7.98;100.00;101399.22;5094251;28;20553;-78
2023/10/23 05:53:25;;;;;;;33.30;10.07;;;;;;;8.00;100.00;101407.50;5091160;28;20040;-78
2023/10/23 05:55:51;;;;;;;47.00;10.45;;;;;;;8.03;100.00;101415.41;5094041;28;20051;-79
2023/10/23 05:58:18;;;;;;;37.08;9.98;;;;;;;8.08;100.00;101411.53;5092280;28;20044;-79
2023/10/23 06:00:44;;;;;;;23.05;10.00;;;;;;;8.12;100.00;101408.81;5094191;28;20041;-79
2023/10/23 06:03:11;;;;;;;24.95;10.13;;;;;;;8.16;100.00;101397.00;5092022;28;20055;-79
2023/10/23 06:05:42;;;;;;;18.50;9.85;;;;;;;8.21;100.00;101399.19;5092164;28;20481;-79
2023/10/23 06:08:09;;;;;;;34.60;11.00;;;;;;;8.25;100.00;101397.22;5093615;28;20103;-78
2023/10/23 06:10:43;;;;;;;22.38;9.95;;;;;;;8.31;100.00;101400.91;5092432;28;20067;-78
2023/10/23 06:13:11;;;;;;;68.03;11.00;;;;;;;8.34;100.00;101394.81;5092279;28;20516;-79
2023/10/23 06:15:38;;;;;;;30.52;11.15;;;;;;;8.38;100.00;101399.31;5091503;28;20069;-80
2023/10/23 06:18:05;;;;;;;40.67;11.27;;;;;;;8.44;100.00;101397.66;5092172;28;20052;-80
2023/10/23 06:20:32;;;;;;;24.70;11.32;;;;;;;8.48;100.00;101396.44;5093592;28;20128;-80
2023/10/23 06:22:59;;;;;;;50.72;11.70;;;;;;;8.51;100.00;101392.22;5092570;28;20095;-79
2023/10/23 06:25:26;;;;;;;46.67;12.48;;;;;;;8.56;100.00;101397.78;5093196;28;20131;-79
2023/10/23 06:27:53;;;;;;;46.85;12.25;;;;;;;8.60;100.00;101392.41;5093792;28;20386;-79
2023/10/23 06:30:21;;;;;;;62.55;13.45;;;;;;;8.64;100.00;101401.81;5092753;28;20040;-80
2023/10/23 06:32:47;;;;;;;96.15;13.02;;;;;;;8.68;100.00;101407.03;5092164;28;20045;-82
2023/10/23 06:35:17;;;;;;;80.80;13.32;;;;;;;8.72;100.00;101399.75;5093259;28;20052;-81
2023/10/23 06:37:44;;;;;;;45.15;12.65;;;;;;;8.75;100.00;101400.84;5091890;28;20185;-82
2023/10/23 06:40:11;;;;;;;22.70;12.30;;;;;;;8.78;100.00;101398.13;5093255;28;20037;-82
2023/10/23 06:42:37;;;;;;;103.07;12.70;;;;;;;8.83;100.00;101404.84;5093347;28;20045;-83
2023/10/23 06:45:05;;;;;;;57.75;12.90;;;;;;;8.85;100.00;101400.63;5091584;28;20075;-83
2023/10/23 06:47:32;;;;;;;59.22;12.88;;;;;;;8.88;100.00;101397.13;5093141;28;20041;-84
2023/10/23 06:49:59;;;;;;;73.88;13.15;;;;;;;8.90;100.00;101392.16;5093419;28;20479;-82
2023/10/23 06:52:26;;;;;;;44.22;12.98;;;;;;;8.94;100.00;101397.41;5074703;28;20424;-84
2023/10/23 06:54:52;;;;;;;70.45;13.00;;;;;;;8.97;100.00;101392.03;5093210;28;20079;-88
2023/10/23 06:57:19;;;;;;;38.58;11.77;;;;;;;8.99;100.00;101396.91;5093134;28;20483;-82
2023/10/23 06:59:46;;;;;;;49.70;12.35;;;;;;;8.99;100.00;101392.34;5092850;28;20044;-82
2023/10/23 07:02:12;;;;;;;67.18;12.05;;;;;;;9.02;100.00;101396.84;5093011;28;20048;-82
2023/10/23 07:04:39;;;;;;;88.40;11.80;;;;;;;9.05;100.00;101392.63;5092240;28;20307;-80
2023/10/23 07:07:06;;;;;;;46.00;11.88;;;;;;;9.06;100.00;101391.47;5093102;28;20048;-80
2023/10/23 07:09:56;;;;;;;40.33;11.63;;;;;;;9.09;100.00;101401.25;5092288;28;20044;-79
2023/10/23 07:12:23;;;;;;;133.50;11.60;;;;;;;9.13;100.00;101404.59;5092543;28;20044;-78
2023/10/23 07:14:49;;;;;;;87.78;11.25;;;;;;;9.13;100.00;101406.50;5091307;28;20040;-79
2023/10/23 07:17:17;;;;;;;152.18;12.27;;;;;;;9.15;100.00;101409.50;5092895;28;20602;-78
2023/10/23 07:19:43;;;;;;;105.65;13.05;;;;;;;9.17;100.00;101420.47;5092601;28;20131;-79
2023/10/23 07:22:10;;;;;;;88.53;12.43;;;;;;;9.18;100.00;101413.97;5092521;28;20474;-79
2023/10/23 07:24:36;;;;;;;78.78;11.65;;;;;;;9.19;100.00;101421.53;5092914;28;20048;-80
2023/10/23 07:27:03;;;;;;;118.00;12.13;;;;;;;9.18;100.00;101422.69;5091697;28;20044;-82
2023/10/23 07:29:30;;;;;;;95.90;12.23;;;;;;;9.18;100.00;101414.72;5091824;28;20131;-84
2023/10/23 07:31:56;;;;;;;71.60;12.35;;;;;;;9.19;100.00;101421.53;5092925;28;20120;-82
2023/10/23 07:34:23;;;;;;;62.90;12.18;;;;;;;9.19;100.00;101420.78;5090799;28;20391;-81
2023/10/23 07:36:49;;;;;;;75.13;12.45;;;;;;;9.22;100.00;101418.03;5093009;28;20120;-81
2023/10/23 07:39:18;;;;;;;57.42;12.48;;;;;;;9.27;100.00;101412.22;5092544;28;20044;-80
2023/10/23 07:41:44;;;;;;;82.88;13.18;;;;;;;9.32;100.00;101416.31;5092571;28;20056;-80
2023/10/23 07:44:11;;;;;;;86.65;12.85;;;;;;;9.35;100.00;101408.25;5074010;28;20596;-80
2023/10/23 07:46:38;;;;;;;59.40;12.38;;;;;;;9.40;100.00;101408.94;5092110;28;20060;-81
2023/10/23 07:49:05;;;;;;;70.00;12.65;;;;;;;9.43;100.00;101411.50;5092539;28;20086;-81
2023/10/23 07:51:32;;;;;;;58.58;13.10;;;;;;;9.47;100.00;101416.75;5092247;28;20048;-81
2023/10/23 07:53:58;;;;;;;49.30;12.27;;;;;;;9.48;100.00;101412.91;5092105;28;20486;-80
2023/10/23 07:56:25;;;;;;;114.85;11.98;;;;;;;9.48;100.00;101408.34;5073241;28;20052;-80
2023/10/23 07:58:53;;;;;;;100.72;11.98;;;;;;;9.48;100.00;101412.91;5092146;28;20490;-81
2023/10/23 08:01:19;;;;;;;98.53;11.75;;;;;;;9.48;100.00;101418.25;5090047;28;20049;-82
2023/10/23 08:03:47;;;;;;;84.43;11.82;;;;;;;9.48;100.00;101415.56;5074562;28;20048;-86
2023/10/23 08:06:14;;;;;;;43.92;11.10;;;;;;;9.51;100.00;101415.50;5091854;28;20134;-79
2023/10/23 08:08:43;;;;;;;30.10;11.02;;;;;;;9.55;100.00;101416.16;5090774;28;20528;-81
2023/10/23 08:11:11;;;;;;;43.03;10.88;;;;;;;9.60;100.00;101413.00;5090685;28;20036;-81
2023/10/23 08:13:38;;;;;;;55.47;10.45;;;;;;;9.60;100.00;101418.31;5091617;28;20036;-82
2023/10/23 08:16:04;;;;;;;65.25;11.23;;;;;;;9.61;100.00;101419.81;5093451;28;20124;-81
2023/10/23 08:18:34;;;;;;;54.92;11.10;;;;;;;9.64;100.00;101413.66;5095543;28;20046;-82
2023/10/23 08:21:11;;;;;;;55.67;11.45;;;;;;;9.69;100.00;101409.75;5093959;28;20103;-83
2023/10/23 08:23:39;;;;;;;56.90;11.15;;;;;;;9.65;100.00;101406.41;5095631;28;20048;-82
2023/10/23 08:26:06;;;;;;;55.05;10.82;;;;;;;9.67;100.00;101398.78;5095155;28;20499;-84
2023/10/23 08:28:32;;;;;;;62.38;10.75;;;;;;;9.67;100.00;101406.75;5095302;28;20045;-84
2023/10/23 08:31:19;;;;;;;22.63;11.23;;;;;;;9.68;100.00;101402.94;5095385;28;20489;-80
2023/10/23 08:34:04;;;;;;;21.58;10.70;;;;;;;9.73;100.00;101404.34;5095649;28;20121;-83
2023/10/23 08:36:31;;;;;;;30.50;11.35;;;;;;;9.78;100.00;101401.94;5093907;28;20049;-83
2023/10/23 08:38:59;;;;;;;19.05;10.85;;;;;;;9.81;100.00;101405.66;5095298;28;20049;-82
2023/10/23 08:41:26;;;;;;;31.10;11.63;;;;;;;9.81;100.00;101403.00;5094725;28;20528;-81
2023/10/23 08:43:54;;;;;;;31.65;11.57;;;;;;;9.83;100.00;101398.78;5095055;28;20550;-82
2023/10/23 08:46:26;;;;;;;39.38;11.15;;;;;;;9.84;100.00;101400.28;5093189;28;20061;-82
2023/10/23 08:48:53;;;;;;;37.03;11.13;;;;;;;9.87;100.00;101398.69;5095566;28;20047;-81
2023/10/23 08:51:20;;;;;;;20.02;11.38;;;;;;;9.89;100.00;101397.09;5094921;28;20047;-85
2023/10/23 08:53:55;;;;;;;26.38;12.43;;;;;;;9.98;100.00;101397.25;5095385;28;20044;-83
2023/10/23 08:56:37;;;;;;;22.33;11.63;;;;;;;10.08;100.00;101392.81;5093970;28;20056;-81
2023/10/23 08:59:05;;;;;;;30.27;12.48;;;;;;;10.12;100.00;101387.41;5095112;28;20076;-81
2023/10/23 09:01:36;;;;;;;27.38;12.73;;;;;;;10.16;100.00;101388.81;5093671;28;20107;-80
2023/10/23 09:04:05;;;;;;;21.23;11.93;;;;;;;10.22;100.00;101387.16;5095203;28;20541;-81
2023/10/23 09:06:35;;;;;;;24.60;12.55;;;;;;;10.28;100.00;101396.13;5094541;28;20119;-80
2023/10/23 09:09:04;;;;;;;17.45;12.45;;;;;;;10.32;100.00;101393.38;5094679;28;20051;-82
2023/10/23 09:11:46;;;;;;;22.08;12.57;;;;;;;10.34;100.00;101399.03;5093336;28;20452;-84
2023/10/23 09:14:27;;;;;;;;;;;;;;;10.37;100.00;101403.50;5095094;28;20131;-80
2023/10/23 09:16:55;;;;;;;17.77;11.43;;;;;;;10.33;100.00;101403.59;5094789;28;20028;-80
2023/10/23 09:19:29;;;;;;;17.05;12.57;;;;;;;10.33;100.00;101392.94;5094406;28;20116;-81
2023/10/23 09:21:56;;;;;;;18.38;13.25;;;;;;;10.40;100.00;101393.94;5094668;28;20559;-82
2023/10/23 09:24:24;;;;;;;25.83;13.75;;;;;;;10.49;100.00;101389.47;5092650;28;20049;-82
2023/10/23 09:26:51;;;;;;;25.20;14.55;;;;;;;10.50;100.00;101392.88;5094829;28;20054;-83
2023/10/23 09:29:27;;;;;;;24.67;14.60;;;;;;;10.51;100.00;101407.66;5094785;28;20047;-81
2023/10/23 09:31:56;;;;;;;22.17;13.65;;;;;;;10.53;100.00;101403.41;5092867;28;20053;-81
2023/10/23 09:34:23;;;;;;;30.27;15.20;;;;;;;10.54;100.00;101399.59;5094452;28;20114;-82
2023/10/23 09:36:51;;;;;;;27.02;14.57;;;;;;;10.60;100.00;101403.22;5093246;28;20052;-81
2023/10/23 09:39:21;;;;;;;21.25;13.88;;;;;;;10.63;100.00;101402.38;5092813;28;20044;-80
2023/10/23 09:41:48;;;;;;;26.00;15.13;;;;;;;10.70;100.00;101404.09;5094661;28;20124;-80
2023/10/23 09:44:15;;;;;;;27.25;14.20;;;;;;;10.74;100.00;101404.00;5092823;28;20502;-80
2023/10/23 09:46:42;;;;;;;20.38;13.57;;;;;;;10.75;100.00;101411.56;5094244;28;20087;-80
2023/10/23 09:49:10;;;;;;;22.13;13.80;;;;;;;10.83;100.00;101406.78;5094013;28;20120;-79
2023/10/23 09:51:39;;;;;;;25.50;13.90;;;;;;;10.87;100.00;101407.41;5094086;28;20041;-79
2023/10/23 09:54:17;;;;;;;21.27;14.07;;;;;;;10.89;100.00;101400.50;5093450;28;20048;-84
2023/10/23 09:56:53;;;;;;;21.10;14.75;;;;;;;10.95;100.00;101406.03;5094017;28;20053;-79
2023/10/23 09:59:33;;;;;;;20.58;14.23;;;;;;;10.95;100.00;101404.13;5094033;28;20047;-79
2023/10/23 10:02:00;;;;;;;20.55;13.57;;;;;;;11.00;100.00;101395.59;5092929;28;20087;-79
2023/10/23 10:04:36;;;;;;;18.83;13.23;;;;;;;11.09;100.00;101397.63;5092098;28;20091;-80
2023/10/23 10:07:16;;;;;;;23.33;14.27;;;;;;;11.15;100.00;101400.53;5092253;28;20608;-80
2023/10/23 10:09:44;;;;;;;21.42;13.32;;;;;;;11.18;100.00;101407.66;5093565;28;20495;-81
2023/10/23 10:12:10;;;;;;;21.35;13.80;;;;;;;11.25;100.00;101408.16;5092552;28;20099;-81
2023/10/23 10:14:40;;;;;;;22.35;12.02;;;;;;;11.28;100.00;101401.25;5093679;28;20091;-80
2023/10/23 10:17:09;;;;;;;18.98;12.52;;;;;;;11.33;100.00;101404.13;5092369;28;20049;-80
2023/10/23 10:19:37;;;;;;;21.55;12.93;;;;;;;11.39;100.00;101404.34;5093653;28;20127;-80
2023/10/23 10:22:23;;;;;;;18.92;11.95;;;;;;;11.40;100.00;101397.81;5092842;28;20048;-79
2023/10/23 10:24:52;;;;;;;19.00;12.25;;;;;;;11.45;100.00;101397.28;5094036;28;20477;-82
2023/10/23 10:27:20;;;;;;;17.15;11.32;;;;;;;11.46;100.00;101396.13;5092349;28;20110;-84
2023/10/23 10:29:46;;;;;;;15.02;11.52;;;;;;;11.45;100.00;101391.94;5093783;28;20072;-80
2023/10/23 10:32:13;;;;;;;18.42;12.73;;;;;;;11.53;100.00;101387.16;5093342;28;20044;-83
2023/10/23 10:34:46;;;;;;;17.38;12.02;;;;;;;11.61;100.00;101394.47;5093472;28;20405;-80
2023/10/23 10:37:24;;;;;;;16.38;11.70;;;;;;;11.62;100.00;101387.97;5093135;28;20040;-83
2023/10/23 10:40:03;;;;;;;16.35;11.77;;;;;;;11.67;100.00;101384.00;5091475;28;20044;-81
2023/10/23 10:42:34;;;;;;;14.60;11.07;;;;;;;11.66;100.00;101375.25;5091940;28;20045;-82
2023/10/23 10:45:07;;;;;;;18.50;11.70;;;;;;;11.72;100.00;101377.38;5093347;28;20527;-81
2023/10/23 10:47:36;;;;;;;17.30;11.80;;;;;;;11.78;100.00;101368.44;5092883;28;20493;-83
2023/10/23 10:50:05;;;;;;;16.45;11.13;;;;;;;11.86;100.00;101371.59;5092920;28;20107;-81
2023/10/23 10:52:36;;;;;;;13.77;10.27;;;;;;;11.87;100.00;101375.78;5091435;28;20572;-82
2023/10/23 10:55:06;;;;;;;;;;;;;;;11.90;100.00;101364.22;5093239;28;20051;-81
2023/10/23 10:57:34;;;;;;;12.38;9.20;;;;;;;11.98;100.00;101358.22;5093527;28;20380;-81
2023/10/23 11:00:00;;;;;;;12.63;8.93;;;;;;;11.99;100.00;101357.06;5092722;28;20603;-82
2023/10/23 11:02:27;;;;;;;14.73;9.63;;;;;;;12.08;100.00;101356.34;5093137;28;20112;-80
2023/10/23 11:04:54;;;;;;;15.90;9.25;;;;;;;12.17;100.00;101353.75;5092982;28;20045;-81
2023/10/23 11:07:24;;;;;;;16.73;9.27;;;;;;;12.21;100.00;101354.38;5091969;28;20578;-78
2023/10/23 11:09:52;;;;;;;12.07;9.75;;;;;;;12.31;100.00;101341.84;5093252;28;20044;-77
2023/10/23 11:12:20;;;;;;;14.30;9.90;;;;;;;12.38;100.00;101332.81;5091880;28;20044;-79
2023/10/23 11:14:47;;;;;;;15.98;9.57;;;;;;;12.44;100.00;101328.38;5093100;28;20495;-79
2023/10/23 11:17:15;;;;;;;11.70;9.32;;;;;;;12.46;100.00;101326.03;5091303;28;20461;-79
2023/10/23 11:19:43;;;;;;;16.50;9.52;;;;;;;12.49;100.00;101325.16;5092619;28;20045;-79
2023/10/23 11:22:11;;;;;;;19.70;9.00;;;;;;;12.59;100.00;101314.06;5092227;28;20052;-79